sensor_id;sensor_type;location;lat;lon;timestamp;temperature;humidity
15749;DHT22;7976;52.526;13.326;2022-11-11T00:01:25;11.20;99.90
15749;DHT22;7976;52.526;13.326;2022-11-11T00:04:11;11.20;99.90
15749;DHT22;7976;52.526;13.326;2022-11-11T00:06:57;11.20;99.90
15749;DHT22;7976;52.526;13.326;2022-11-11T00:09:42;11.20;99.90
15749;DHT22;7976;52.526;13.326;2022-11-11T00:12:29;11.20;99.90
15749;DHT22;7976;52.526;13.326;2022-11-11T00:15:26;11.10;99.90
15749;DHT22;7976;52.526;13.326;2022-11-11T00:18:16;11.10;99.90
15749;DHT22;7976;52.526;13.326;2022-11-11T00:21:19;11.00;99.90
15749;DHT22;7976;52.526;13.326;2022-11-11T00:24:31;11.00;99.90
15749;DHT22;7976;52.526;13.326;2022-11-11T00:27:38;11.00;99.90
15749;DHT22;7976;52.526;13.326;2022-11-11T00:30:27;11.00;99.90
15749;DHT22;7976;52.526;13.326;2022-11-11T00:33:25;11.00;99.90
15749;DHT22;7976;52.526;13.326;2022-11-11T00:36:11;11.00;99.90
15749;DHT22;7976;52.526;13.326;2022-11-11T00:38:59;11.00;99.90
15749;DHT22;7976;52.526;13.326;2022-11-11T00:41:45;11.00;99.90
15749;DHT22;7976;52.526;13.326;2022-11-11T00:44:31;11.00;99.90
15749;DHT22;7976;52.526;13.326;2022-11-11T00:47:16;10.90;99.90
15749;DHT22;7976;52.526;13.326;2022-11-11T00:50:24;10.90;99.90
15749;DHT22;7976;52.526;13.326;2022-11-11T00:53:31;10.90;99.90
15749;DHT22;7976;52.526;13.326;2022-11-11T00:56:20;10.90;99.90
15749;DHT22;7976;52.526;13.326;2022-11-11T00:59:08;10.90;99.90
15749;DHT22;7976;52.526;13.326;2022-11-11T01:01:56;10.80;99.90
15749;DHT22;7976;52.526;13.326;2022-11-11T01:04:42;10.80;99.90
15749;DHT22;7976;52.526;13.326;2022-11-11T01:07:29;10.80;99.90
15749;DHT22;7976;52.526;13.326;2022-11-11T01:10:15;10.80;99.90
15749;DHT22;7976;52.526;13.326;2022-11-11T01:13:22;10.80;99.90
15749;DHT22;7976;52.526;13.326;2022-11-11T01:16:12;10.70;99.90
15749;DHT22;7976;52.526;13.326;2022-11-11T01:18:59;10.70;99.90
15749;DHT22;7976;52.526;13.326;2022-11-11T01:21:45;10.70;99.90
15749;DHT22;7976;52.526;13.326;2022-11-11T01:24:32;10.70;99.90
15749;DHT22;7976;52.526;13.326;2022-11-11T01:27:17;10.70;99.90
15749;DHT22;7976;52.526;13.326;2022-11-11T01:30:04;10.70;99.90
15749;DHT22;7976;52.526;13.326;2022-11-11T01:32:50;10.70;99.90
15749;DHT22;7976;52.526;13.326;2022-11-11T01:35:39;10.70;99.90
15749;DHT22;7976;52.526;13.326;2022-11-11T01:38:26;10.70;99.90
15749;DHT22;7976;52.526;13.326;2022-11-11T01:41:15;10.60;99.90
15749;DHT22;7976;52.526;13.326;2022-11-11T01:47:28;10.60;99.90
15749;DHT22;7976;52.526;13.326;2022-11-11T01:50:35;10.60;99.90
15749;DHT22;7976;52.526;13.326;2022-11-11T01:53:19;10.60;99.90
15749;DHT22;7976;52.526;13.326;2022-11-11T01:56:06;10.60;99.90
15749;DHT22;7976;52.526;13.326;2022-11-11T01:58:58;10.60;99.90
15749;DHT22;7976;52.526;13.326;2022-11-11T02:01:50;10.60;99.90
15749;DHT22;7976;52.526;13.326;2022-11-11T02:04:36;10.70;99.90
15749;DHT22;7976;52.526;13.326;2022-11-11T02:07:41;10.60;99.90
15749;DHT22;7976;52.526;13.326;2022-11-11T02:10:29;10.60;99.90
15749;DHT22;7976;52.526;13.326;2022-11-11T02:13:17;10.50;99.90
15749;DHT22;7976;52.526;13.326;2022-11-11T02:16:22;10.50;99.90
15749;DHT22;7976;52.526;13.326;2022-11-11T02:19:09;10.50;99.90
15749;DHT22;7976;52.526;13.326;2022-11-11T02:21:58;10.50;99.90
15749;DHT22;7976;52.526;13.326;2022-11-11T02:24:48;10.50;99.90
15749;DHT22;7976;52.526;13.326;2022-11-11T02:27:39;10.50;99.90
15749;DHT22;7976;52.526;13.326;2022-11-11T02:30:29;10.50;99.90
15749;DHT22;7976;52.526;13.326;2022-11-11T02:33:16;10.50;99.90
15749;DHT22;7976;52.526;13.326;2022-11-11T02:36:01;10.50;99.90
15749;DHT22;7976;52.526;13.326;2022-11-11T02:38:49;10.50;99.90
15749;DHT22;7976;52.526;13.326;2022-11-11T02:41:37;10.50;99.90
15749;DHT22;7976;52.526;13.326;2022-11-11T02:44:41;10.50;99.90
15749;DHT22;7976;52.526;13.326;2022-11-11T02:47:26;10.50;99.90
15749;DHT22;7976;52.526;13.326;2022-11-11T02:50:12;10.50;99.90
15749;DHT22;7976;52.526;13.326;2022-11-11T02:52:57;10.50;99.90
15749;DHT22;7976;52.526;13.326;2022-11-11T02:55:43;10.50;99.90
15749;DHT22;7976;52.526;13.326;2022-11-11T02:58:31;10.50;99.90
15749;DHT22;7976;52.526;13.326;2022-11-11T03:01:17;10.50;99.90
15749;DHT22;7976;52.526;13.326;2022-11-11T03:04:06;10.50;99.90
15749;DHT22;7976;52.526;13.326;2022-11-11T03:06:52;10.50;99.90
15749;DHT22;7976;52.526;13.326;2022-11-11T03:09:37;10.50;99.90
15749;DHT22;7976;52.526;13.326;2022-11-11T03:12:23;10.50;99.90
15749;DHT22;7976;52.526;13.326;2022-11-11T03:15:11;10.50;99.90
15749;DHT22;7976;52.526;13.326;2022-11-11T03:17:56;10.40;99.90
15749;DHT22;7976;52.526;13.326;2022-11-11T03:20:41;10.40;99.90
15749;DHT22;7976;52.526;13.326;2022-11-11T03:23:47;10.40;99.90
15749;DHT22;7976;52.526;13.326;2022-11-11T03:26:33;10.40;99.90
15749;DHT22;7976;52.526;13.326;2022-11-11T03:29:19;10.40;99.90
15749;DHT22;7976;52.526;13.326;2022-11-11T03:32:07;10.40;99.90
15749;DHT22;7976;52.526;13.326;2022-11-11T03:34:52;10.40;99.90
15749;DHT22;7976;52.526;13.326;2022-11-11T03:37:38;10.40;99.90
15749;DHT22;7976;52.526;13.326;2022-11-11T03:40:42;10.40;99.90
15749;DHT22;7976;52.526;13.326;2022-11-11T03:43:29;10.30;99.90
15749;DHT22;7976;52.526;13.326;2022-11-11T03:46:16;10.30;99.90
15749;DHT22;7976;52.526;13.326;2022-11-11T03:49:03;10.20;99.90
15749;DHT22;7976;52.526;13.326;2022-11-11T03:51:49;10.20;99.90
15749;DHT22;7976;52.526;13.326;2022-11-11T03:54:34;10.20;99.90
15749;DHT22;7976;52.526;13.326;2022-11-11T03:57:20;10.20;99.90
15749;DHT22;7976;52.526;13.326;2022-11-11T04:00:17;10.20;99.90
15749;DHT22;7976;52.526;13.326;2022-11-11T04:03:05;10.20;99.90
15749;DHT22;7976;52.526;13.326;2022-11-11T04:06:13;10.20;99.90
15749;DHT22;7976;52.526;13.326;2022-11-11T04:09:17;10.10;99.90
15749;DHT22;7976;52.526;13.326;2022-11-11T04:12:20;10.10;99.90
15749;DHT22;7976;52.526;13.326;2022-11-11T04:15:08;10.10;99.90
15749;DHT22;7976;52.526;13.326;2022-11-11T04:18:11;10.10;99.90
15749;DHT22;7976;52.526;13.326;2022-11-11T04:20:57;10.10;99.90
15749;DHT22;7976;52.526;13.326;2022-11-11T04:24:03;10.10;99.90
15749;DHT22;7976;52.526;13.326;2022-11-11T04:27:10;10.10;99.90
15749;DHT22;7976;52.526;13.326;2022-11-11T04:29:56;10.10;99.90
15749;DHT22;7976;52.526;13.326;2022-11-11T04:32:41;10.10;99.90
15749;DHT22;7976;52.526;13.326;2022-11-11T04:35:30;10.10;99.90
15749;DHT22;7976;52.526;13.326;2022-11-11T04:38:16;10.10;99.90
15749;DHT22;7976;52.526;13.326;2022-11-11T04:41:21;10.10;99.90
15749;DHT22;7976;52.526;13.326;2022-11-11T04:44:07;10.10;99.90
15749;DHT22;7976;52.526;13.326;2022-11-11T04:47:10;10.00;99.90
15749;DHT22;7976;52.526;13.326;2022-11-11T04:49:56;10.00;99.90
15749;DHT22;7976;52.526;13.326;2022-11-11T04:52:41;10.00;99.90
15749;DHT22;7976;52.526;13.326;2022-11-11T04:55:28;10.00;99.90
15749;DHT22;7976;52.526;13.326;2022-11-11T04:58:34;10.00;99.90
15749;DHT22;7976;52.526;13.326;2022-11-11T05:01:20;10.10;99.90
15749;DHT22;7976;52.526;13.326;2022-11-11T05:04:19;10.00;99.90
15749;DHT22;7976;52.526;13.326;2022-11-11T05:07:05;10.10;99.90
15749;DHT22;7976;52.526;13.326;2022-11-11T05:10:08;10.10;99.90
15749;DHT22;7976;52.526;13.326;2022-11-11T05:12:54;10.10;99.90
15749;DHT22;7976;52.526;13.326;2022-11-11T05:16:01;10.10;99.90
15749;DHT22;7976;52.526;13.326;2022-11-11T05:19:07;10.10;99.90
15749;DHT22;7976;52.526;13.326;2022-11-11T05:22:15;10.10;99.90
15749;DHT22;7976;52.526;13.326;2022-11-11T05:25:05;10.10;99.90
15749;DHT22;7976;52.526;13.326;2022-11-11T05:28:09;10.10;99.90
15749;DHT22;7976;52.526;13.326;2022-11-11T05:30:54;10.10;99.90
15749;DHT22;7976;52.526;13.326;2022-11-11T05:33:41;10.10;99.90
15749;DHT22;7976;52.526;13.326;2022-11-11T05:36:26;10.10;99.90
15749;DHT22;7976;52.526;13.326;2022-11-11T05:39:12;10.10;99.90
15749;DHT22;7976;52.526;13.326;2022-11-11T05:41:57;10.10;99.90
15749;DHT22;7976;52.526;13.326;2022-11-11T05:44:43;10.10;99.90
15749;DHT22;7976;52.526;13.326;2022-11-11T05:47:29;10.10;99.90
15749;DHT22;7976;52.526;13.326;2022-11-11T05:50:16;10.10;99.90
15749;DHT22;7976;52.526;13.326;2022-11-11T05:53:02;10.00;99.90
15749;DHT22;7976;52.526;13.326;2022-11-11T05:55:49;10.10;99.90
15749;DHT22;7976;52.526;13.326;2022-11-11T05:58:34;10.10;99.90
15749;DHT22;7976;52.526;13.326;2022-11-11T06:01:19;10.00;99.90
15749;DHT22;7976;52.526;13.326;2022-11-11T06:04:06;10.00;99.90
15749;DHT22;7976;52.526;13.326;2022-11-11T06:06:53;10.00;99.90
15749;DHT22;7976;52.526;13.326;2022-11-11T06:09:39;10.10;99.90
15749;DHT22;7976;52.526;13.326;2022-11-11T06:12:24;10.10;99.90
15749;DHT22;7976;52.526;13.326;2022-11-11T06:15:30;10.10;99.90
15749;DHT22;7976;52.526;13.326;2022-11-11T06:18:17;10.10;99.90
15749;DHT22;7976;52.526;13.326;2022-11-11T06:21:03;10.10;99.90
15749;DHT22;7976;52.526;13.326;2022-11-11T06:23:50;10.10;99.90
15749;DHT22;7976;52.526;13.326;2022-11-11T06:26:36;10.10;99.90
15749;DHT22;7976;52.526;13.326;2022-11-11T06:29:22;10.10;99.90
15749;DHT22;7976;52.526;13.326;2022-11-11T06:32:08;10.10;99.90
15749;DHT22;7976;52.526;13.326;2022-11-11T06:34:53;10.10;99.90
15749;DHT22;7976;52.526;13.326;2022-11-11T06:37:39;10.10;99.90
15749;DHT22;7976;52.526;13.326;2022-11-11T06:40:25;10.10;99.90
15749;DHT22;7976;52.526;13.326;2022-11-11T06:43:11;10.10;99.90
15749;DHT22;7976;52.526;13.326;2022-11-11T06:45:57;10.10;99.90
15749;DHT22;7976;52.526;13.326;2022-11-11T06:48:42;10.10;99.90
15749;DHT22;7976;52.526;13.326;2022-11-11T06:51:28;10.10;99.90
15749;DHT22;7976;52.526;13.326;2022-11-11T06:54:14;10.10;99.90
15749;DHT22;7976;52.526;13.326;2022-11-11T06:57:01;10.20;99.90
15749;DHT22;7976;52.526;13.326;2022-11-11T06:59:46;10.20;99.90
15749;DHT22;7976;52.526;13.326;2022-11-11T07:02:31;10.20;99.90
15749;DHT22;7976;52.526;13.326;2022-11-11T07:05:17;10.30;99.90
15749;DHT22;7976;52.526;13.326;2022-11-11T07:08:03;10.30;99.90
15749;DHT22;7976;52.526;13.326;2022-11-11T07:10:50;10.30;99.90
15749;DHT22;7976;52.526;13.326;2022-11-11T07:13:37;10.30;99.90
15749;DHT22;7976;52.526;13.326;2022-11-11T07:16:22;10.40;99.90
15749;DHT22;7976;52.526;13.326;2022-11-11T07:19:08;10.40;99.90
15749;DHT22;7976;52.526;13.326;2022-11-11T07:21:53;10.40;99.90
15749;DHT22;7976;52.526;13.326;2022-11-11T07:24:39;10.40;99.90
15749;DHT22;7976;52.526;13.326;2022-11-11T07:27:25;10.40;99.90
15749;DHT22;7976;52.526;13.326;2022-11-11T07:30:12;10.50;99.90
15749;DHT22;7976;52.526;13.326;2022-11-11T07:32:58;10.50;99.90
15749;DHT22;7976;52.526;13.326;2022-11-11T07:35:43;10.50;99.90
15749;DHT22;7976;52.526;13.326;2022-11-11T07:38:29;10.50;99.90
15749;DHT22;7976;52.526;13.326;2022-11-11T07:41:15;10.50;99.90
15749;DHT22;7976;52.526;13.326;2022-11-11T07:44:00;10.50;99.90
15749;DHT22;7976;52.526;13.326;2022-11-11T07:46:48;10.50;99.90
15749;DHT22;7976;52.526;13.326;2022-11-11T07:49:34;10.50;99.90
15749;DHT22;7976;52.526;13.326;2022-11-11T07:52:19;10.50;99.90
15749;DHT22;7976;52.526;13.326;2022-11-11T07:55:07;10.60;99.90
15749;DHT22;7976;52.526;13.326;2022-11-11T07:57:53;10.60;99.90
15749;DHT22;7976;52.526;13.326;2022-11-11T08:00:39;10.60;99.90
15749;DHT22;7976;52.526;13.326;2022-11-11T08:03:26;10.70;99.90
15749;DHT22;7976;52.526;13.326;2022-11-11T08:06:11;10.70;99.90
15749;DHT22;7976;52.526;13.326;2022-11-11T08:08:57;10.70;99.90
15749;DHT22;7976;52.526;13.326;2022-11-11T08:11:42;10.70;99.90
15749;DHT22;7976;52.526;13.326;2022-11-11T08:14:46;10.80;99.90
15749;DHT22;7976;52.526;13.326;2022-11-11T08:17:36;10.90;99.90
15749;DHT22;7976;52.526;13.326;2022-11-11T08:20:23;10.90;99.90
15749;DHT22;7976;52.526;13.326;2022-11-11T08:23:09;10.90;99.90
15749;DHT22;7976;52.526;13.326;2022-11-11T08:25:56;11.00;99.90
15749;DHT22;7976;52.526;13.326;2022-11-11T08:28:41;11.00;99.90
15749;DHT22;7976;52.526;13.326;2022-11-11T08:31:27;11.00;99.90
15749;DHT22;7976;52.526;13.326;2022-11-11T08:34:13;11.10;99.90
15749;DHT22;7976;52.526;13.326;2022-11-11T08:37:00;11.20;99.90
15749;DHT22;7976;52.526;13.326;2022-11-11T08:39:46;11.20;99.90
15749;DHT22;7976;52.526;13.326;2022-11-11T08:42:31;11.20;99.90
15749;DHT22;7976;52.526;13.326;2022-11-11T08:45:17;11.30;99.90
15749;DHT22;7976;52.526;13.326;2022-11-11T08:48:03;11.40;99.90
15749;DHT22;7976;52.526;13.326;2022-11-11T08:50:51;11.50;99.90
15749;DHT22;7976;52.526;13.326;2022-11-11T08:53:39;11.50;99.90
15749;DHT22;7976;52.526;13.326;2022-11-11T08:56:25;11.60;99.90
15749;DHT22;7976;52.526;13.326;2022-11-11T08:59:11;11.70;99.90
15749;DHT22;7976;52.526;13.326;2022-11-11T09:01:56;11.70;99.90
15749;DHT22;7976;52.526;13.326;2022-11-11T09:04:42;11.70;99.90
15749;DHT22;7976;52.526;13.326;2022-11-11T09:07:27;11.80;99.90
15749;DHT22;7976;52.526;13.326;2022-11-11T09:10:14;11.80;99.90
15749;DHT22;7976;52.526;13.326;2022-11-11T09:13:00;11.90;99.90
15749;DHT22;7976;52.526;13.326;2022-11-11T09:15:46;11.90;99.90
15749;DHT22;7976;52.526;13.326;2022-11-11T09:18:31;11.90;99.90
15749;DHT22;7976;52.526;13.326;2022-11-11T09:21:18;12.00;99.90
15749;DHT22;7976;52.526;13.326;2022-11-11T09:24:04;12.10;99.90
15749;DHT22;7976;52.526;13.326;2022-11-11T09:26:51;12.10;99.90
15749;DHT22;7976;52.526;13.326;2022-11-11T09:29:37;12.10;99.90
15749;DHT22;7976;52.526;13.326;2022-11-11T09:32:23;12.20;99.90
15749;DHT22;7976;52.526;13.326;2022-11-11T09:35:09;12.30;99.90
15749;DHT22;7976;52.526;13.326;2022-11-11T09:37:56;12.30;99.90
15749;DHT22;7976;52.526;13.326;2022-11-11T09:40:51;12.30;99.90
15749;DHT22;7976;52.526;13.326;2022-11-11T09:44:00;12.30;99.90
15749;DHT22;7976;52.526;13.326;2022-11-11T09:46:53;12.40;99.90
15749;DHT22;7976;52.526;13.326;2022-11-11T09:49:54;12.40;99.90
15749;DHT22;7976;52.526;13.326;2022-11-11T09:52:47;12.40;99.90
15749;DHT22;7976;52.526;13.326;2022-11-11T09:55:40;12.40;99.90
15749;DHT22;7976;52.526;13.326;2022-11-11T09:58:31;12.50;99.90
15749;DHT22;7976;52.526;13.326;2022-11-11T10:01:25;12.50;99.90
15749;DHT22;7976;52.526;13.326;2022-11-11T10:04:24;12.50;99.90
15749;DHT22;7976;52.526;13.326;2022-11-11T10:07:23;12.60;99.90
15749;DHT22;7976;52.526;13.326;2022-11-11T10:10:20;12.60;99.90
15749;DHT22;7976;52.526;13.326;2022-11-11T10:13:13;12.70;99.90
15749;DHT22;7976;52.526;13.326;2022-11-11T10:16:05;12.70;99.90
15749;DHT22;7976;52.526;13.326;2022-11-11T10:19:13;12.80;99.90
15749;DHT22;7976;52.526;13.326;2022-11-11T10:22:18;12.80;99.90
15749;DHT22;7976;52.526;13.326;2022-11-11T10:25:18;12.80;99.90
15749;DHT22;7976;52.526;13.326;2022-11-11T10:28:12;12.90;99.90
15749;DHT22;7976;52.526;13.326;2022-11-11T10:31:03;13.00;99.90
15749;DHT22;7976;52.526;13.326;2022-11-11T10:33:59;13.00;99.90
15749;DHT22;7976;52.526;13.326;2022-11-11T10:36:53;13.10;99.90
15749;DHT22;7976;52.526;13.326;2022-11-11T10:39:52;13.10;99.90
15749;DHT22;7976;52.526;13.326;2022-11-11T10:42:48;13.10;99.90
15749;DHT22;7976;52.526;13.326;2022-11-11T10:45:39;13.10;99.90
15749;DHT22;7976;52.526;13.326;2022-11-11T10:48:40;13.10;99.90
15749;DHT22;7976;52.526;13.326;2022-11-11T10:51:35;13.20;99.90
15749;DHT22;7976;52.526;13.326;2022-11-11T10:54:36;13.20;99.90
15749;DHT22;7976;52.526;13.326;2022-11-11T10:57:30;13.20;99.90
15749;DHT22;7976;52.526;13.326;2022-11-11T11:00:21;13.20;99.90
15749;DHT22;7976;52.526;13.326;2022-11-11T11:03:12;13.20;99.90
15749;DHT22;7976;52.526;13.326;2022-11-11T11:06:05;13.20;99.90
15749;DHT22;7976;52.526;13.326;2022-11-11T11:09:02;13.30;99.90
15749;DHT22;7976;52.526;13.326;2022-11-11T11:12:04;13.30;99.90
15749;DHT22;7976;52.526;13.326;2022-11-11T11:14:59;13.30;99.90
15749;DHT22;7976;52.526;13.326;2022-11-11T11:17:53;13.40;99.90
15749;DHT22;7976;52.526;13.326;2022-11-11T11:20:55;13.40;99.90
15749;DHT22;7976;52.526;13.326;2022-11-11T11:23:43;13.40;99.90
15749;DHT22;7976;52.526;13.326;2022-11-11T11:26:42;13.50;99.90
15749;DHT22;7976;52.526;13.326;2022-11-11T11:29:33;13.50;99.90
15749;DHT22;7976;52.526;13.326;2022-11-11T11:32:27;13.50;99.90
15749;DHT22;7976;52.526;13.326;2022-11-11T11:35:29;13.60;99.90
15749;DHT22;7976;52.526;13.326;2022-11-11T11:38:20;13.60;99.90
15749;DHT22;7976;52.526;13.326;2022-11-11T11:41:05;13.60;99.90
15749;DHT22;7976;52.526;13.326;2022-11-11T11:43:51;13.60;99.90
15749;DHT22;7976;52.526;13.326;2022-11-11T11:46:41;13.60;99.90
15749;DHT22;7976;52.526;13.326;2022-11-11T11:49:43;13.60;99.90
15749;DHT22;7976;52.526;13.326;2022-11-11T11:52:52;13.60;99.90
15749;DHT22;7976;52.526;13.326;2022-11-11T11:55:48;13.60;99.90
15749;DHT22;7976;52.526;13.326;2022-11-11T11:58:51;13.60;99.90
15749;DHT22;7976;52.526;13.326;2022-11-11T12:01:51;13.60;99.90
15749;DHT22;7976;52.526;13.326;2022-11-11T12:05:04;13.60;99.90
15749;DHT22;7976;52.526;13.326;2022-11-11T12:08:05;13.70;99.90
15749;DHT22;7976;52.526;13.326;2022-11-11T12:11:08;13.70;99.90
15749;DHT22;7976;52.526;13.326;2022-11-11T12:14:16;13.70;99.90
15749;DHT22;7976;52.526;13.326;2022-11-11T12:17:28;13.60;99.90
15749;DHT22;7976;52.526;13.326;2022-11-11T12:20:24;13.60;99.90
15749;DHT22;7976;52.526;13.326;2022-11-11T12:23:37;13.60;99.90
15749;DHT22;7976;52.526;13.326;2022-11-11T12:26:44;13.70;99.90
15749;DHT22;7976;52.526;13.326;2022-11-11T12:29:48;13.70;99.90
15749;DHT22;7976;52.526;13.326;2022-11-11T12:36:27;13.70;99.90
15749;DHT22;7976;52.526;13.326;2022-11-11T12:39:44;13.80;99.90
15749;DHT22;7976;52.526;13.326;2022-11-11T12:42:52;13.80;99.90
15749;DHT22;7976;52.526;13.326;2022-11-11T12:45:51;13.90;99.90
15749;DHT22;7976;52.526;13.326;2022-11-11T12:48:53;13.90;99.90
15749;DHT22;7976;52.526;13.326;2022-11-11T12:51:54;13.90;99.90
15749;DHT22;7976;52.526;13.326;2022-11-11T12:55:00;13.90;99.90
15749;DHT22;7976;52.526;13.326;2022-11-11T12:58:06;13.90;99.90
15749;DHT22;7976;52.526;13.326;2022-11-11T13:01:09;13.90;99.90
15749;DHT22;7976;52.526;13.326;2022-11-11T13:10:55;14.00;99.90
15749;DHT22;7976;52.526;13.326;2022-11-11T13:13:55;14.00;99.90
15749;DHT22;7976;52.526;13.326;2022-11-11T13:16:50;14.00;99.90
15749;DHT22;7976;52.526;13.326;2022-11-11T13:19:43;14.00;99.90
15749;DHT22;7976;52.526;13.326;2022-11-11T13:22:32;14.00;99.90
15749;DHT22;7976;52.526;13.326;2022-11-11T13:25:21;14.00;99.90
15749;DHT22;7976;52.526;13.326;2022-11-11T13:28:15;13.90;99.90
15749;DHT22;7976;52.526;13.326;2022-11-11T13:31:14;13.90;99.90
15749;DHT22;7976;52.526;13.326;2022-11-11T13:34:11;13.90;99.90
15749;DHT22;7976;52.526;13.326;2022-11-11T13:37:03;13.90;99.90
15749;DHT22;7976;52.526;13.326;2022-11-11T13:39:56;13.90;99.90
15749;DHT22;7976;52.526;13.326;2022-11-11T13:42:49;13.90;99.90
15749;DHT22;7976;52.526;13.326;2022-11-11T13:45:40;13.80;99.90
15749;DHT22;7976;52.526;13.326;2022-11-11T13:48:30;13.80;99.90
15749;DHT22;7976;52.526;13.326;2022-11-11T13:51:23;13.80;99.90
15749;DHT22;7976;52.526;13.326;2022-11-11T13:54:24;13.80;99.90
15749;DHT22;7976;52.526;13.326;2022-11-11T13:57:19;13.70;99.90
15749;DHT22;7976;52.526;13.326;2022-11-11T14:00:23;13.70;99.90
15749;DHT22;7976;52.526;13.326;2022-11-11T14:03:27;13.70;99.90
15749;DHT22;7976;52.526;13.326;2022-11-11T14:06:50;13.60;99.90
15749;DHT22;7976;52.526;13.326;2022-11-11T14:10:00;13.60;99.90
15749;DHT22;7976;52.526;13.326;2022-11-11T14:12:46;13.50;99.90
15749;DHT22;7976;52.526;13.326;2022-11-11T14:15:41;13.50;99.90
15749;DHT22;7976;52.526;13.326;2022-11-11T14:18:41;13.50;99.90
15749;DHT22;7976;52.526;13.326;2022-11-11T14:21:43;13.50;99.90
15749;DHT22;7976;52.526;13.326;2022-11-11T14:24:37;13.40;99.90
15749;DHT22;7976;52.526;13.326;2022-11-11T14:27:29;13.40;99.90
15749;DHT22;7976;52.526;13.326;2022-11-11T14:33:43;13.40;99.90
15749;DHT22;7976;52.526;13.326;2022-11-11T14:36:41;13.30;99.90
15749;DHT22;7976;52.526;13.326;2022-11-11T14:39:35;13.30;99.90
15749;DHT22;7976;52.526;13.326;2022-11-11T14:42:46;13.30;99.90
15749;DHT22;7976;52.526;13.326;2022-11-11T14:46:00;13.20;99.90
15749;DHT22;7976;52.526;13.326;2022-11-11T14:48:55;13.20;99.90
15749;DHT22;7976;52.526;13.326;2022-11-11T14:51:53;13.10;99.90
15749;DHT22;7976;52.526;13.326;2022-11-11T14:54:49;13.10;99.90
15749;DHT22;7976;52.526;13.326;2022-11-11T14:57:41;13.10;99.90
15749;DHT22;7976;52.526;13.326;2022-11-11T15:00:43;13.10;99.90
15749;DHT22;7976;52.526;13.326;2022-11-11T15:03:35;13.00;99.90
15749;DHT22;7976;52.526;13.326;2022-11-11T15:06:25;13.00;99.90
15749;DHT22;7976;52.526;13.326;2022-11-11T15:13:11;12.90;99.90
15749;DHT22;7976;52.526;13.326;2022-11-11T15:16:19;12.90;99.90
15749;DHT22;7976;52.526;13.326;2022-11-11T15:19:33;12.80;99.90
15749;DHT22;7976;52.526;13.326;2022-11-11T15:22:49;12.80;99.90
15749;DHT22;7976;52.526;13.326;2022-11-11T15:25:48;12.80;99.90
15749;DHT22;7976;52.526;13.326;2022-11-11T15:28:51;12.80;99.90
15749;DHT22;7976;52.526;13.326;2022-11-11T15:32:02;12.70;99.90
15749;DHT22;7976;52.526;13.326;2022-11-11T15:34:56;12.70;99.90
15749;DHT22;7976;52.526;13.326;2022-11-11T15:37:53;12.70;99.90
15749;DHT22;7976;52.526;13.326;2022-11-11T15:40:44;12.70;99.90
15749;DHT22;7976;52.526;13.326;2022-11-11T15:43:32;12.70;99.90
15749;DHT22;7976;52.526;13.326;2022-11-11T15:46:25;12.60;99.90
15749;DHT22;7976;52.526;13.326;2022-11-11T15:49:17;12.60;99.90
15749;DHT22;7976;52.526;13.326;2022-11-11T15:52:28;12.60;99.90
15749;DHT22;7976;52.526;13.326;2022-11-11T15:55:21;12.60;99.90
15749;DHT22;7976;52.526;13.326;2022-11-11T15:58:10;12.50;99.90
15749;DHT22;7976;52.526;13.326;2022-11-11T16:01:02;12.50;99.90
15749;DHT22;7976;52.526;13.326;2022-11-11T16:03:50;12.50;99.90
15749;DHT22;7976;52.526;13.326;2022-11-11T16:06:38;12.50;99.90
15749;DHT22;7976;52.526;13.326;2022-11-11T16:09:26;12.40;99.90
15749;DHT22;7976;52.526;13.326;2022-11-11T16:12:18;12.40;99.90
15749;DHT22;7976;52.526;13.326;2022-11-11T16:15:16;12.40;99.90
15749;DHT22;7976;52.526;13.326;2022-11-11T16:18:11;12.40;99.90
15749;DHT22;7976;52.526;13.326;2022-11-11T16:21:05;12.40;99.90
15749;DHT22;7976;52.526;13.326;2022-11-11T16:23:56;12.40;99.90
15749;DHT22;7976;52.526;13.326;2022-11-11T16:26:44;12.30;99.90
15749;DHT22;7976;52.526;13.326;2022-11-11T16:29:33;12.30;99.90
15749;DHT22;7976;52.526;13.326;2022-11-11T16:32:34;12.30;99.90
15749;DHT22;7976;52.526;13.326;2022-11-11T16:35:25;12.20;99.90
15749;DHT22;7976;52.526;13.326;2022-11-11T16:38:29;12.20;99.90
15749;DHT22;7976;52.526;13.326;2022-11-11T16:41:24;12.20;99.90
15749;DHT22;7976;52.526;13.326;2022-11-11T16:44:31;12.20;99.90
15749;DHT22;7976;52.526;13.326;2022-11-11T16:47:49;12.10;99.90
15749;DHT22;7976;52.526;13.326;2022-11-11T16:50:52;12.10;99.90
15749;DHT22;7976;52.526;13.326;2022-11-11T16:53:42;12.10;99.90
15749;DHT22;7976;52.526;13.326;2022-11-11T16:56:32;12.00;99.90
15749;DHT22;7976;52.526;13.326;2022-11-11T16:59:24;12.00;99.90
15749;DHT22;7976;52.526;13.326;2022-11-11T17:02:20;12.00;99.90
15749;DHT22;7976;52.526;13.326;2022-11-11T17:05:08;11.90;99.90
15749;DHT22;7976;52.526;13.326;2022-11-11T17:07:54;11.90;99.90
15749;DHT22;7976;52.526;13.326;2022-11-11T17:10:39;11.90;99.90
15749;DHT22;7976;52.526;13.326;2022-11-11T17:13:27;11.90;99.90
15749;DHT22;7976;52.526;13.326;2022-11-11T17:16:13;11.90;99.90
15749;DHT22;7976;52.526;13.326;2022-11-11T17:18:58;11.90;99.90
15749;DHT22;7976;52.526;13.326;2022-11-11T17:21:44;11.90;99.90
15749;DHT22;7976;52.526;13.326;2022-11-11T17:24:30;11.90;99.90
15749;DHT22;7976;52.526;13.326;2022-11-11T17:27:15;11.90;99.90
15749;DHT22;7976;52.526;13.326;2022-11-11T17:30:02;11.90;99.90
15749;DHT22;7976;52.526;13.326;2022-11-11T17:32:48;11.80;99.90
15749;DHT22;7976;52.526;13.326;2022-11-11T17:35:34;11.80;99.90
15749;DHT22;7976;52.526;13.326;2022-11-11T17:38:20;11.80;99.90
15749;DHT22;7976;52.526;13.326;2022-11-11T17:41:06;11.80;99.90
15749;DHT22;7976;52.526;13.326;2022-11-11T17:43:52;11.80;99.90
15749;DHT22;7976;52.526;13.326;2022-11-11T17:46:39;11.70;99.90
15749;DHT22;7976;52.526;13.326;2022-11-11T17:49:25;11.70;99.90
15749;DHT22;7976;52.526;13.326;2022-11-11T17:52:11;11.70;99.90
15749;DHT22;7976;52.526;13.326;2022-11-11T17:54:57;11.70;99.90
15749;DHT22;7976;52.526;13.326;2022-11-11T17:57:42;11.70;99.90
15749;DHT22;7976;52.526;13.326;2022-11-11T18:00:28;11.70;99.90
15749;DHT22;7976;52.526;13.326;2022-11-11T18:03:15;11.70;99.90
15749;DHT22;7976;52.526;13.326;2022-11-11T18:06:00;11.60;99.90
15749;DHT22;7976;52.526;13.326;2022-11-11T18:08:46;11.70;99.90
15749;DHT22;7976;52.526;13.326;2022-11-11T18:11:31;11.60;99.90
15749;DHT22;7976;52.526;13.326;2022-11-11T18:14:19;11.60;99.90
15749;DHT22;7976;52.526;13.326;2022-11-11T18:17:04;11.60;99.90
15749;DHT22;7976;52.526;13.326;2022-11-11T18:19:51;11.60;99.90
15749;DHT22;7976;52.526;13.326;2022-11-11T18:22:36;11.50;99.90
15749;DHT22;7976;52.526;13.326;2022-11-11T18:25:21;11.50;99.90
15749;DHT22;7976;52.526;13.326;2022-11-11T18:28:07;11.50;99.90